sensor_id;sensor_type;location;lat;lon;timestamp;temperature;humidity
23377;DHT22;14353;46.070;13.222;2024-01-30T00:01:52;21.70;33.40
23377;DHT22;14353;46.070;13.222;2024-01-30T00:04:18;21.70;33.50
23377;DHT22;14353;46.070;13.222;2024-01-30T00:06:44;21.70;33.50
23377;DHT22;14353;46.070;13.222;2024-01-30T00:09:10;21.70;33.50
23377;DHT22;14353;46.070;13.222;2024-01-30T00:11:37;21.60;33.40
23377;DHT22;14353;46.070;13.222;2024-01-30T00:14:03;21.60;33.50
23377;DHT22;14353;46.070;13.222;2024-01-30T00:16:29;21.60;33.50
23377;DHT22;14353;46.070;13.222;2024-01-30T00:18:55;21.60;33.60
23377;DHT22;14353;46.070;13.222;2024-01-30T00:21:21;21.60;33.60
23377;DHT22;14353;46.070;13.222;2024-01-30T00:23:47;21.50;33.60
23377;DHT22;14353;46.070;13.222;2024-01-30T00:26:13;21.50;33.70
23377;DHT22;14353;46.070;13.222;2024-01-30T00:28:43;21.50;33.70
23377;DHT22;14353;46.070;13.222;2024-01-30T00:31:09;21.50;33.70
23377;DHT22;14353;46.070;13.222;2024-01-30T00:33:38;21.50;33.70
23377;DHT22;14353;46.070;13.222;2024-01-30T00:36:05;21.50;33.80
23377;DHT22;14353;46.070;13.222;2024-01-30T00:38:32;21.50;33.80
23377;DHT22;14353;46.070;13.222;2024-01-30T00:40:58;21.40;33.80
23377;DHT22;14353;46.070;13.222;2024-01-30T00:43:24;21.40;33.80
23377;DHT22;14353;46.070;13.222;2024-01-30T00:45:51;21.40;33.80
23377;DHT22;14353;46.070;13.222;2024-01-30T00:48:18;21.40;33.90
23377;DHT22;14353;46.070;13.222;2024-01-30T00:50:44;21.30;33.80
23377;DHT22;14353;46.070;13.222;2024-01-30T00:53:09;21.30;33.90
23377;DHT22;14353;46.070;13.222;2024-01-30T00:55:35;21.30;33.90
23377;DHT22;14353;46.070;13.222;2024-01-30T00:58:01;21.30;34.00
23377;DHT22;14353;46.070;13.222;2024-01-30T01:00:27;21.30;34.00
23377;DHT22;14353;46.070;13.222;2024-01-30T01:02:55;21.30;34.10
23377;DHT22;14353;46.070;13.222;2024-01-30T01:05:21;21.30;34.10
23377;DHT22;14353;46.070;13.222;2024-01-30T01:07:46;21.30;34.10
23377;DHT22;14353;46.070;13.222;2024-01-30T01:10:16;21.20;34.10
23377;DHT22;14353;46.070;13.222;2024-01-30T01:12:43;21.20;34.10
23377;DHT22;14353;46.070;13.222;2024-01-30T01:15:09;21.20;34.20
23377;DHT22;14353;46.070;13.222;2024-01-30T01:17:36;21.20;34.20
23377;DHT22;14353;46.070;13.222;2024-01-30T01:20:03;21.10;34.20
23377;DHT22;14353;46.070;13.222;2024-01-30T01:22:31;21.10;34.20
23377;DHT22;14353;46.070;13.222;2024-01-30T01:24:56;21.10;34.20
23377;DHT22;14353;46.070;13.222;2024-01-30T01:27:22;21.10;34.20
23377;DHT22;14353;46.070;13.222;2024-01-30T01:29:48;21.10;34.30
23377;DHT22;14353;46.070;13.222;2024-01-30T01:32:13;21.10;34.30
23377;DHT22;14353;46.070;13.222;2024-01-30T01:34:39;21.00;34.30
23377;DHT22;14353;46.070;13.222;2024-01-30T01:37:05;21.10;34.40
23377;DHT22;14353;46.070;13.222;2024-01-30T01:39:31;21.00;34.30
23377;DHT22;14353;46.070;13.222;2024-01-30T01:41:56;21.00;34.30
23377;DHT22;14353;46.070;13.222;2024-01-30T01:44:22;21.00;34.40
23377;DHT22;14353;46.070;13.222;2024-01-30T01:46:48;21.00;34.40
23377;DHT22;14353;46.070;13.222;2024-01-30T01:49:14;20.90;34.40
23377;DHT22;14353;46.070;13.222;2024-01-30T01:51:41;21.00;34.40
23377;DHT22;14353;46.070;13.222;2024-01-30T01:54:08;20.90;34.40
23377;DHT22;14353;46.070;13.222;2024-01-30T01:56:34;20.90;34.40
23377;DHT22;14353;46.070;13.222;2024-01-30T01:59:05;20.90;34.50
23377;DHT22;14353;46.070;13.222;2024-01-30T02:01:33;20.90;34.50
23377;DHT22;14353;46.070;13.222;2024-01-30T02:04:00;20.80;34.50
23377;DHT22;14353;46.070;13.222;2024-01-30T02:06:27;20.90;34.50
23377;DHT22;14353;46.070;13.222;2024-01-30T02:08:53;20.80;34.50
23377;DHT22;14353;46.070;13.222;2024-01-30T02:11:20;20.80;34.50
23377;DHT22;14353;46.070;13.222;2024-01-30T02:13:47;20.80;34.60
23377;DHT22;14353;46.070;13.222;2024-01-30T02:16:13;20.80;34.60
23377;DHT22;14353;46.070;13.222;2024-01-30T02:18:38;20.80;34.70
23377;DHT22;14353;46.070;13.222;2024-01-30T02:21:09;20.70;34.60
23377;DHT22;14353;46.070;13.222;2024-01-30T02:23:35;20.70;34.60
23377;DHT22;14353;46.070;13.222;2024-01-30T02:26:01;20.70;34.60
23377;DHT22;14353;46.070;13.222;2024-01-30T02:28:26;20.70;34.60
23377;DHT22;14353;46.070;13.222;2024-01-30T02:30:53;20.70;34.60
23377;DHT22;14353;46.070;13.222;2024-01-30T02:33:19;20.70;34.70
23377;DHT22;14353;46.070;13.222;2024-01-30T02:35:45;20.70;34.70
23377;DHT22;14353;46.070;13.222;2024-01-30T02:38:10;20.70;34.80
23377;DHT22;14353;46.070;13.222;2024-01-30T02:40:36;20.70;34.70
23377;DHT22;14353;46.070;13.222;2024-01-30T02:43:02;20.70;34.70
23377;DHT22;14353;46.070;13.222;2024-01-30T02:45:28;20.70;34.80
23377;DHT22;14353;46.070;13.222;2024-01-30T02:47:54;20.60;34.70
23377;DHT22;14353;46.070;13.222;2024-01-30T02:50:20;20.60;34.70
23377;DHT22;14353;46.070;13.222;2024-01-30T02:52:45;20.60;34.70
23377;DHT22;14353;46.070;13.222;2024-01-30T02:55:12;20.60;34.70
23377;DHT22;14353;46.070;13.222;2024-01-30T02:57:38;20.60;34.80
23377;DHT22;14353;46.070;13.222;2024-01-30T03:00:04;20.60;34.70
23377;DHT22;14353;46.070;13.222;2024-01-30T03:02:32;20.60;34.70
23377;DHT22;14353;46.070;13.222;2024-01-30T03:04:58;20.60;34.80
23377;DHT22;14353;46.070;13.222;2024-01-30T03:07:23;20.50;34.70
23377;DHT22;14353;46.070;13.222;2024-01-30T03:09:49;20.50;34.70
23377;DHT22;14353;46.070;13.222;2024-01-30T03:12:15;20.50;34.70
23377;DHT22;14353;46.070;13.222;2024-01-30T03:14:40;20.50;34.70
23377;DHT22;14353;46.070;13.222;2024-01-30T03:17:06;20.50;34.70
23377;DHT22;14353;46.070;13.222;2024-01-30T03:19:32;20.50;34.70
23377;DHT22;14353;46.070;13.222;2024-01-30T03:21:58;20.50;34.70
23377;DHT22;14353;46.070;13.222;2024-01-30T03:24:24;20.50;34.80
23377;DHT22;14353;46.070;13.222;2024-01-30T03:26:50;20.50;34.80
23377;DHT22;14353;46.070;13.222;2024-01-30T03:29:16;20.50;34.80
23377;DHT22;14353;46.070;13.222;2024-01-30T03:31:42;20.50;34.80
23377;DHT22;14353;46.070;13.222;2024-01-30T03:34:07;20.50;34.80
23377;DHT22;14353;46.070;13.222;2024-01-30T03:36:33;20.50;34.80
23377;DHT22;14353;46.070;13.222;2024-01-30T03:39:00;20.40;34.70
23377;DHT22;14353;46.070;13.222;2024-01-30T03:41:26;20.40;34.70
23377;DHT22;14353;46.070;13.222;2024-01-30T03:43:52;20.40;34.70
23377;DHT22;14353;46.070;13.222;2024-01-30T03:46:18;20.40;34.70
23377;DHT22;14353;46.070;13.222;2024-01-30T03:48:44;20.40;34.80
23377;DHT22;14353;46.070;13.222;2024-01-30T03:51:10;20.40;34.70
23377;DHT22;14353;46.070;13.222;2024-01-30T03:53:43;20.40;34.80
23377;DHT22;14353;46.070;13.222;2024-01-30T03:56:09;20.40;34.70
23377;DHT22;14353;46.070;13.222;2024-01-30T03:58:35;20.40;34.70
23377;DHT22;14353;46.070;13.222;2024-01-30T04:01:01;20.40;35.40
23377;DHT22;14353;46.070;13.222;2024-01-30T04:03:27;20.40;34.80
23377;DHT22;14353;46.070;13.222;2024-01-30T04:05:53;20.40;34.80
23377;DHT22;14353;46.070;13.222;2024-01-30T04:08:19;20.40;34.70
23377;DHT22;14353;46.070;13.222;2024-01-30T04:10:46;20.40;34.80
23377;DHT22;14353;46.070;13.222;2024-01-30T04:13:12;20.40;34.80
23377;DHT22;14353;46.070;13.222;2024-01-30T04:15:37;20.40;34.80
23377;DHT22;14353;46.070;13.222;2024-01-30T04:18:03;20.40;34.80
23377;DHT22;14353;46.070;13.222;2024-01-30T04:20:30;20.40;34.80
23377;DHT22;14353;46.070;13.222;2024-01-30T04:22:55;20.40;34.70
23377;DHT22;14353;46.070;13.222;2024-01-30T04:25:22;20.40;34.60
23377;DHT22;14353;46.070;13.222;2024-01-30T04:27:48;20.50;34.50
23377;DHT22;14353;46.070;13.222;2024-01-30T04:30:14;20.50;34.40
23377;DHT22;14353;46.070;13.222;2024-01-30T04:32:40;20.60;34.30
23377;DHT22;14353;46.070;13.222;2024-01-30T04:35:06;20.60;34.20
23377;DHT22;14353;46.070;13.222;2024-01-30T04:37:32;20.70;34.20
23377;DHT22;14353;46.070;13.222;2024-01-30T04:39:57;20.70;34.00
23377;DHT22;14353;46.070;13.222;2024-01-30T04:42:23;20.80;34.00
23377;DHT22;14353;46.070;13.222;2024-01-30T04:44:50;20.80;33.80
23377;DHT22;14353;46.070;13.222;2024-01-30T04:47:15;20.90;33.70
23377;DHT22;14353;46.070;13.222;2024-01-30T04:49:41;20.90;33.70
23377;DHT22;14353;46.070;13.222;2024-01-30T04:52:07;20.90;33.60
23377;DHT22;14353;46.070;13.222;2024-01-30T04:54:34;21.00;33.60
23377;DHT22;14353;46.070;13.222;2024-01-30T04:57:00;20.90;33.50
23377;DHT22;14353;46.070;13.222;2024-01-30T04:59:26;20.90;33.50
23377;DHT22;14353;46.070;13.222;2024-01-30T05:01:52;20.90;33.40
23377;DHT22;14353;46.070;13.222;2024-01-30T05:04:18;20.90;33.40
23377;DHT22;14353;46.070;13.222;2024-01-30T05:06:43;20.90;33.40
23377;DHT22;14353;46.070;13.222;2024-01-30T05:09:09;21.00;33.50
23377;DHT22;14353;46.070;13.222;2024-01-30T05:11:39;21.00;33.50
23377;DHT22;14353;46.070;13.222;2024-01-30T05:14:06;21.00;33.50
23377;DHT22;14353;46.070;13.222;2024-01-30T05:16:32;21.00;33.40
23377;DHT22;14353;46.070;13.222;2024-01-30T05:18:58;21.00;33.40
23377;DHT22;14353;46.070;13.222;2024-01-30T05:21:24;21.00;33.30
23377;DHT22;14353;46.070;13.222;2024-01-30T05:23:51;21.00;33.30
23377;DHT22;14353;46.070;13.222;2024-01-30T05:26:17;21.00;33.30
23377;DHT22;14353;46.070;13.222;2024-01-30T05:28:43;21.00;34.00
23377;DHT22;14353;46.070;13.222;2024-01-30T05:31:12;21.00;33.20
23377;DHT22;14353;46.070;13.222;2024-01-30T05:33:37;21.10;33.30
23377;DHT22;14353;46.070;13.222;2024-01-30T05:36:03;21.10;33.20
23377;DHT22;14353;46.070;13.222;2024-01-30T05:38:29;21.10;33.20
23377;DHT22;14353;46.070;13.222;2024-01-30T05:40:55;21.10;33.20
23377;DHT22;14353;46.070;13.222;2024-01-30T05:43:23;21.10;33.20
23377;DHT22;14353;46.070;13.222;2024-01-30T05:45:49;21.10;33.20
23377;DHT22;14353;46.070;13.222;2024-01-30T05:48:14;21.20;33.20
23377;DHT22;14353;46.070;13.222;2024-01-30T05:50:40;21.20;33.10
23377;DHT22;14353;46.070;13.222;2024-01-30T05:53:06;21.20;33.10
23377;DHT22;14353;46.070;13.222;2024-01-30T05:55:31;21.10;33.10
23377;DHT22;14353;46.070;13.222;2024-01-30T05:57:57;21.20;33.10
23377;DHT22;14353;46.070;13.222;2024-01-30T06:00:23;21.20;33.00
23377;DHT22;14353;46.070;13.222;2024-01-30T06:02:49;21.20;33.00
23377;DHT22;14353;46.070;13.222;2024-01-30T06:05:14;21.20;32.90
23377;DHT22;14353;46.070;13.222;2024-01-30T06:07:40;21.20;32.90
23377;DHT22;14353;46.070;13.222;2024-01-30T06:10:06;21.20;32.90
23377;DHT22;14353;46.070;13.222;2024-01-30T06:12:33;21.20;32.80
23377;DHT22;14353;46.070;13.222;2024-01-30T06:14:58;21.30;32.80
23377;DHT22;14353;46.070;13.222;2024-01-30T06:17:24;21.30;32.80
23377;DHT22;14353;46.070;13.222;2024-01-30T06:19:50;21.30;32.70
23377;DHT22;14353;46.070;13.222;2024-01-30T06:22:16;21.30;32.70
23377;DHT22;14353;46.070;13.222;2024-01-30T06:24:42;21.30;32.70
23377;DHT22;14353;46.070;13.222;2024-01-30T06:27:10;21.30;32.60
23377;DHT22;14353;46.070;13.222;2024-01-30T06:29:36;21.30;32.60
23377;DHT22;14353;46.070;13.222;2024-01-30T06:32:02;21.40;32.70
23377;DHT22;14353;46.070;13.222;2024-01-30T06:34:27;21.40;32.60
23377;DHT22;14353;46.070;13.222;2024-01-30T06:36:53;21.40;32.60
23377;DHT22;14353;46.070;13.222;2024-01-30T06:39:19;21.40;32.50
23377;DHT22;14353;46.070;13.222;2024-01-30T06:41:45;21.40;32.50
23377;DHT22;14353;46.070;13.222;2024-01-30T06:44:12;21.50;32.50
23377;DHT22;14353;46.070;13.222;2024-01-30T06:46:38;21.50;32.40
23377;DHT22;14353;46.070;13.222;2024-01-30T06:49:04;21.50;32.30
23377;DHT22;14353;46.070;13.222;2024-01-30T06:51:31;21.50;32.20
23377;DHT22;14353;46.070;13.222;2024-01-30T06:53:57;21.50;32.20
23377;DHT22;14353;46.070;13.222;2024-01-30T06:56:22;21.60;32.20
23377;DHT22;14353;46.070;13.222;2024-01-30T06:58:49;21.60;32.20
23377;DHT22;14353;46.070;13.222;2024-01-30T07:01:15;21.60;32.20
23377;DHT22;14353;46.070;13.222;2024-01-30T07:03:41;21.70;32.20
23377;DHT22;14353;46.070;13.222;2024-01-30T07:06:09;21.70;32.20
23377;DHT22;14353;46.070;13.222;2024-01-30T07:08:36;21.70;32.20
23377;DHT22;14353;46.070;13.222;2024-01-30T07:11:05;21.70;32.10
23377;DHT22;14353;46.070;13.222;2024-01-30T07:13:32;21.70;32.10
23377;DHT22;14353;46.070;13.222;2024-01-30T07:15:59;21.80;32.10
23377;DHT22;14353;46.070;13.222;2024-01-30T07:18:26;21.80;32.00
23377;DHT22;14353;46.070;13.222;2024-01-30T07:20:53;21.80;31.90
23377;DHT22;14353;46.070;13.222;2024-01-30T07:23:19;21.80;31.90
23377;DHT22;14353;46.070;13.222;2024-01-30T07:25:44;21.90;32.00
23377;DHT22;14353;46.070;13.222;2024-01-30T07:28:12;21.90;32.00
23377;DHT22;14353;46.070;13.222;2024-01-30T07:30:39;21.90;31.90
23377;DHT22;14353;46.070;13.222;2024-01-30T07:33:05;21.90;31.80
23377;DHT22;14353;46.070;13.222;2024-01-30T07:35:31;21.90;31.80
23377;DHT22;14353;46.070;13.222;2024-01-30T07:37:56;22.00;31.80
23377;DHT22;14353;46.070;13.222;2024-01-30T07:40:23;22.00;31.80
23377;DHT22;14353;46.070;13.222;2024-01-30T07:42:49;22.00;31.70
23377;DHT22;14353;46.070;13.222;2024-01-30T07:45:15;22.00;31.70
23377;DHT22;14353;46.070;13.222;2024-01-30T07:47:40;22.00;31.70
23377;DHT22;14353;46.070;13.222;2024-01-30T07:50:08;22.10;31.70
23377;DHT22;14353;46.070;13.222;2024-01-30T07:52:34;22.10;31.60
23377;DHT22;14353;46.070;13.222;2024-01-30T07:54:59;22.10;31.60
23377;DHT22;14353;46.070;13.222;2024-01-30T07:57:25;22.10;31.60
23377;DHT22;14353;46.070;13.222;2024-01-30T07:59:51;22.20;31.60
23377;DHT22;14353;46.070;13.222;2024-01-30T08:02:17;22.20;31.60
23377;DHT22;14353;46.070;13.222;2024-01-30T08:04:42;22.20;31.50
23377;DHT22;14353;46.070;13.222;2024-01-30T08:07:08;22.20;31.40
23377;DHT22;14353;46.070;13.222;2024-01-30T08:09:34;22.20;30.50
23377;DHT22;14353;46.070;13.222;2024-01-30T08:12:00;22.20;30.20
23377;DHT22;14353;46.070;13.222;2024-01-30T08:14:26;22.30;30.20
23377;DHT22;14353;46.070;13.222;2024-01-30T08:16:51;22.30;30.00
23377;DHT22;14353;46.070;13.222;2024-01-30T08:19:17;22.30;29.80
23377;DHT22;14353;46.070;13.222;2024-01-30T08:21:43;22.30;29.70
23377;DHT22;14353;46.070;13.222;2024-01-30T08:24:09;22.30;29.70
23377;DHT22;14353;46.070;13.222;2024-01-30T08:26:35;22.30;29.60
23377;DHT22;14353;46.070;13.222;2024-01-30T08:29:01;22.30;29.50
23377;DHT22;14353;46.070;13.222;2024-01-30T08:31:27;22.30;29.60
23377;DHT22;14353;46.070;13.222;2024-01-30T08:33:53;22.40;29.40
23377;DHT22;14353;46.070;13.222;2024-01-30T08:36:19;22.40;29.80
23377;DHT22;14353;46.070;13.222;2024-01-30T08:38:45;22.40;29.50
23377;DHT22;14353;46.070;13.222;2024-01-30T08:41:11;22.40;29.40
23377;DHT22;14353;46.070;13.222;2024-01-30T08:43:37;22.40;29.20
23377;DHT22;14353;46.070;13.222;2024-01-30T08:46:03;22.40;29.50
23377;DHT22;14353;46.070;13.222;2024-01-30T08:48:29;22.50;29.50
23377;DHT22;14353;46.070;13.222;2024-01-30T08:50:55;22.50;29.80
23377;DHT22;14353;46.070;13.222;2024-01-30T08:53:21;22.50;29.90
23377;DHT22;14353;46.070;13.222;2024-01-30T08:55:46;22.60;29.90
23377;DHT22;14353;46.070;13.222;2024-01-30T08:58:12;22.60;30.20
23377;DHT22;14353;46.070;13.222;2024-01-30T09:00:38;22.60;30.10
23377;DHT22;14353;46.070;13.222;2024-01-30T09:03:04;22.70;30.10
23377;DHT22;14353;46.070;13.222;2024-01-30T09:05:30;22.70;30.70
23377;DHT22;14353;46.070;13.222;2024-01-30T09:07:56;22.80;30.80
23377;DHT22;14353;46.070;13.222;2024-01-30T09:10:22;22.80;30.60
23377;DHT22;14353;46.070;13.222;2024-01-30T09:12:48;22.80;30.40
23377;DHT22;14353;46.070;13.222;2024-01-30T09:15:15;22.80;30.20
23377;DHT22;14353;46.070;13.222;2024-01-30T09:17:41;22.90;30.10
23377;DHT22;14353;46.070;13.222;2024-01-30T09:20:07;22.90;30.20
23377;DHT22;14353;46.070;13.222;2024-01-30T09:22:34;23.00;30.00
23377;DHT22;14353;46.070;13.222;2024-01-30T09:25:03;23.00;30.00
23377;DHT22;14353;46.070;13.222;2024-01-30T09:27:29;23.00;29.90
23377;DHT22;14353;46.070;13.222;2024-01-30T09:29:55;23.10;30.60
23377;DHT22;14353;46.070;13.222;2024-01-30T09:32:20;23.20;29.70
23377;DHT22;14353;46.070;13.222;2024-01-30T09:34:46;23.20;30.00
23377;DHT22;14353;46.070;13.222;2024-01-30T09:37:12;23.30;30.60
23377;DHT22;14353;46.070;13.222;2024-01-30T09:39:40;23.40;29.80
23377;DHT22;14353;46.070;13.222;2024-01-30T09:44:51;23.70;29.70
23377;DHT22;14353;46.070;13.222;2024-01-30T09:47:17;23.90;29.80
23377;DHT22;14353;46.070;13.222;2024-01-30T09:49:44;24.00;29.60
23377;DHT22;14353;46.070;13.222;2024-01-30T09:52:11;24.20;29.30
23377;DHT22;14353;46.070;13.222;2024-01-30T09:54:36;24.40;29.00
23377;DHT22;14353;46.070;13.222;2024-01-30T09:57:04;24.50;28.80
23377;DHT22;14353;46.070;13.222;2024-01-30T09:59:30;24.60;28.90
23377;DHT22;14353;46.070;13.222;2024-01-30T10:01:57;24.60;28.80
23377;DHT22;14353;46.070;13.222;2024-01-30T10:04:22;24.60;29.00
23377;DHT22;14353;46.070;13.222;2024-01-30T10:06:49;24.60;29.10
23377;DHT22;14353;46.070;13.222;2024-01-30T10:09:15;24.60;29.10
23377;DHT22;14353;46.070;13.222;2024-01-30T10:11:40;24.60;28.90
23377;DHT22;14353;46.070;13.222;2024-01-30T10:14:06;24.70;29.00
23377;DHT22;14353;46.070;13.222;2024-01-30T10:16:35;24.70;28.90
23377;DHT22;14353;46.070;13.222;2024-01-30T10:19:01;24.80;28.80
23377;DHT22;14353;46.070;13.222;2024-01-30T10:21:30;24.90;28.80
23377;DHT22;14353;46.070;13.222;2024-01-30T10:23:57;25.00;28.70
23377;DHT22;14353;46.070;13.222;2024-01-30T10:26:24;25.10;29.00
23377;DHT22;14353;46.070;13.222;2024-01-30T10:28:50;25.20;28.80
23377;DHT22;14353;46.070;13.222;2024-01-30T10:31:17;25.40;28.60
23377;DHT22;14353;46.070;13.222;2024-01-30T10:33:44;25.50;28.90
23377;DHT22;14353;46.070;13.222;2024-01-30T10:36:13;25.70;28.80
23377;DHT22;14353;46.070;13.222;2024-01-30T10:38:42;25.90;28.70
23377;DHT22;14353;46.070;13.222;2024-01-30T10:41:11;25.90;28.40
23377;DHT22;14353;46.070;13.222;2024-01-30T10:43:41;25.90;28.70
23377;DHT22;14353;46.070;13.222;2024-01-30T10:46:11;25.90;29.00
23377;DHT22;14353;46.070;13.222;2024-01-30T10:48:43;26.00;29.10
23377;DHT22;14353;46.070;13.222;2024-01-30T10:51:14;26.20;28.80
23377;DHT22;14353;46.070;13.222;2024-01-30T10:53:41;26.70;28.30
23377;DHT22;14353;46.070;13.222;2024-01-30T10:56:10;27.20;27.70
23377;DHT22;14353;46.070;13.222;2024-01-30T10:58:37;27.80;27.20
23377;DHT22;14353;46.070;13.222;2024-01-30T11:01:04;28.30;26.70
23377;DHT22;14353;46.070;13.222;2024-01-30T11:03:30;28.80;26.20
23377;DHT22;14353;46.070;13.222;2024-01-30T11:05:59;29.10;25.10
23377;DHT22;14353;46.070;13.222;2024-01-30T11:08:25;29.70;21.00
23377;DHT22;14353;46.070;13.222;2024-01-30T11:10:58;30.00;20.60
23377;DHT22;14353;46.070;13.222;2024-01-30T11:13:30;30.40;20.80
23377;DHT22;14353;46.070;13.222;2024-01-30T11:16:04;30.80;20.90
23377;DHT22;14353;46.070;13.222;2024-01-30T11:18:31;31.00;19.80
23377;DHT22;14353;46.070;13.222;2024-01-30T11:20:59;31.30;19.30
23377;DHT22;14353;46.070;13.222;2024-01-30T11:23:27;31.50;20.60
23377;DHT22;14353;46.070;13.222;2024-01-30T11:25:54;31.90;19.90
23377;DHT22;14353;46.070;13.222;2024-01-30T11:28:23;32.10;17.90
23377;DHT22;14353;46.070;13.222;2024-01-30T11:30:49;32.00;17.30
23377;DHT22;14353;46.070;13.222;2024-01-30T11:33:30;31.90;17.70
23377;DHT22;14353;46.070;13.222;2024-01-30T11:36:00;32.00;19.60
23377;DHT22;14353;46.070;13.222;2024-01-30T11:38:27;32.10;19.50
23377;DHT22;14353;46.070;13.222;2024-01-30T11:40:56;32.20;20.50
23377;DHT22;14353;46.070;13.222;2024-01-30T11:43:23;31.80;19.20
23377;DHT22;14353;46.070;13.222;2024-01-30T11:45:49;31.60;17.70
23377;DHT22;14353;46.070;13.222;2024-01-30T11:48:15;31.50;20.40
23377;DHT22;14353;46.070;13.222;2024-01-30T11:50:41;31.40;17.80
23377;DHT22;14353;46.070;13.222;2024-01-30T11:53:08;31.50;18.70
23377;DHT22;14353;46.070;13.222;2024-01-30T11:55:34;31.60;20.00
23377;DHT22;14353;46.070;13.222;2024-01-30T11:58:03;31.60;18.70
23377;DHT22;14353;46.070;13.222;2024-01-30T12:00:29;32.00;18.10
23377;DHT22;14353;46.070;13.222;2024-01-30T12:02:56;32.70;17.00
23377;DHT22;14353;46.070;13.222;2024-01-30T12:05:25;32.70;18.60
23377;DHT22;14353;46.070;13.222;2024-01-30T12:07:51;32.50;18.90
23377;DHT22;14353;46.070;13.222;2024-01-30T12:10:17;32.80;18.70
23377;DHT22;14353;46.070;13.222;2024-01-30T12:12:50;32.80;16.60
23377;DHT22;14353;46.070;13.222;2024-01-30T12:15:17;32.70;18.00
23377;DHT22;14353;46.070;13.222;2024-01-30T12:17:43;32.70;18.20
23377;DHT22;14353;46.070;13.222;2024-01-30T12:20:13;32.90;16.90
23377;DHT22;14353;46.070;13.222;2024-01-30T12:22:43;33.10;17.60
23377;DHT22;14353;46.070;13.222;2024-01-30T12:25:16;33.00;17.70
23377;DHT22;14353;46.070;13.222;2024-01-30T12:27:44;32.90;16.50
23377;DHT22;14353;46.070;13.222;2024-01-30T12:30:12;32.60;17.20
23377;DHT22;14353;46.070;13.222;2024-01-30T12:32:42;32.10;15.80
23377;DHT22;14353;46.070;13.222;2024-01-30T12:35:17;32.10;17.20
23377;DHT22;14353;46.070;13.222;2024-01-30T12:37:44;31.50;14.40
23377;DHT22;14353;46.070;13.222;2024-01-30T12:40:10;31.50;16.70
23377;DHT22;14353;46.070;13.222;2024-01-30T12:42:38;31.60;17.10
23377;DHT22;14353;46.070;13.222;2024-01-30T12:45:05;31.80;17.10
23377;DHT22;14353;46.070;13.222;2024-01-30T12:47:31;31.80;17.00
23377;DHT22;14353;46.070;13.222;2024-01-30T12:49:57;31.40;16.50
23377;DHT22;14353;46.070;13.222;2024-01-30T12:52:23;31.00;16.30
23377;DHT22;14353;46.070;13.222;2024-01-30T12:54:49;31.00;15.30
23377;DHT22;14353;46.070;13.222;2024-01-30T12:57:16;31.30;16.70
23377;DHT22;14353;46.070;13.222;2024-01-30T12:59:43;31.20;15.80
23377;DHT22;14353;46.070;13.222;2024-01-30T13:02:09;31.10;15.60
23377;DHT22;14353;46.070;13.222;2024-01-30T13:04:35;31.00;16.70
23377;DHT22;14353;46.070;13.222;2024-01-30T13:07:01;31.00;15.80
23377;DHT22;14353;46.070;13.222;2024-01-30T13:09:27;31.00;15.60
23377;DHT22;14353;46.070;13.222;2024-01-30T13:11:53;31.20;16.80
23377;DHT22;14353;46.070;13.222;2024-01-30T13:14:19;31.00;16.90
23377;DHT22;14353;46.070;13.222;2024-01-30T13:16:45;30.80;16.90
23377;DHT22;14353;46.070;13.222;2024-01-30T13:19:11;30.80;16.90
23377;DHT22;14353;46.070;13.222;2024-01-30T13:21:38;30.70;16.90
23377;DHT22;14353;46.070;13.222;2024-01-30T13:24:04;30.70;16.80
23377;DHT22;14353;46.070;13.222;2024-01-30T13:26:32;30.70;16.40
23377;DHT22;14353;46.070;13.222;2024-01-30T13:28:58;30.50;17.10
23377;DHT22;14353;46.070;13.222;2024-01-30T13:31:24;30.30;16.80
23377;DHT22;14353;46.070;13.222;2024-01-30T13:33:50;29.80;15.80
23377;DHT22;14353;46.070;13.222;2024-01-30T13:36:16;29.80;17.20
23377;DHT22;14353;46.070;13.222;2024-01-30T13:38:42;29.70;17.50
23377;DHT22;14353;46.070;13.222;2024-01-30T13:41:08;29.60;17.60
23377;DHT22;14353;46.070;13.222;2024-01-30T13:43:33;29.30;15.70
23377;DHT22;14353;46.070;13.222;2024-01-30T13:45:59;28.90;16.90
23377;DHT22;14353;46.070;13.222;2024-01-30T13:48:25;28.70;16.10
23377;DHT22;14353;46.070;13.222;2024-01-30T13:50:51;28.00;17.40
23377;DHT22;14353;46.070;13.222;2024-01-30T13:53:16;27.90;18.50
23377;DHT22;14353;46.070;13.222;2024-01-30T13:55:42;27.80;18.00
23377;DHT22;14353;46.070;13.222;2024-01-30T13:58:08;27.80;17.30
23377;DHT22;14353;46.070;13.222;2024-01-30T14:00:34;27.40;17.50
23377;DHT22;14353;46.070;13.222;2024-01-30T14:03:00;27.60;20.20
23377;DHT22;14353;46.070;13.222;2024-01-30T14:05:26;27.70;18.70
23377;DHT22;14353;46.070;13.222;2024-01-30T14:07:57;27.80;18.50
23377;DHT22;14353;46.070;13.222;2024-01-30T14:10:23;27.80;18.10
23377;DHT22;14353;46.070;13.222;2024-01-30T14:12:49;27.80;19.60
23377;DHT22;14353;46.070;13.222;2024-01-30T14:15:15;27.80;18.70
23377;DHT22;14353;46.070;13.222;2024-01-30T14:17:44;27.80;19.90
23377;DHT22;14353;46.070;13.222;2024-01-30T14:20:11;27.80;18.60
23377;DHT22;14353;46.070;13.222;2024-01-30T14:22:37;27.40;18.40
23377;DHT22;14353;46.070;13.222;2024-01-30T14:25:03;27.20;18.90
23377;DHT22;14353;46.070;13.222;2024-01-30T14:27:30;27.10;19.60
23377;DHT22;14353;46.070;13.222;2024-01-30T14:29:56;27.00;19.80
23377;DHT22;14353;46.070;13.222;2024-01-30T14:32:23;26.70;19.20
23377;DHT22;14353;46.070;13.222;2024-01-30T14:34:49;26.60;19.90
23377;DHT22;14353;46.070;13.222;2024-01-30T14:37:15;26.50;19.90
23377;DHT22;14353;46.070;13.222;2024-01-30T14:39:41;26.40;20.30
23377;DHT22;14353;46.070;13.222;2024-01-30T14:42:07;26.30;20.40
23377;DHT22;14353;46.070;13.222;2024-01-30T14:44:33;26.30;20.10
23377;DHT22;14353;46.070;13.222;2024-01-30T14:47:02;26.10;20.20
23377;DHT22;14353;46.070;13.222;2024-01-30T14:49:28;26.10;19.90
23377;DHT22;14353;46.070;13.222;2024-01-30T14:51:54;26.00;20.10
23377;DHT22;14353;46.070;13.222;2024-01-30T14:54:19;25.90;20.80
23377;DHT22;14353;46.070;13.222;2024-01-30T14:56:45;25.90;20.70
23377;DHT22;14353;46.070;13.222;2024-01-30T14:59:11;25.90;21.20
23377;DHT22;14353;46.070;13.222;2024-01-30T15:01:37;26.00;20.90
23377;DHT22;14353;46.070;13.222;2024-01-30T15:04:03;25.90;20.40
23377;DHT22;14353;46.070;13.222;2024-01-30T15:06:29;25.80;20.70
23377;DHT22;14353;46.070;13.222;2024-01-30T15:08:55;25.70;21.10
23377;DHT22;14353;46.070;13.222;2024-01-30T15:11:21;25.80;22.50
23377;DHT22;14353;46.070;13.222;2024-01-30T15:13:46;25.90;22.50